Time;durP1;ratioP1;P1;durP2;ratioP2;P2;SDS_P1;SDS_P2;PMS_P1;PMS_P2;Temp;Humidity;BMP_temperature;BMP_pressure;BME280_temperature;BME280_humidity;BME280_pressure;Samples;Min_cycle;Max_cycle;Signal;HPM_P1;HPM_P2
2023/01/27 00:02:16;;;;;;;4.32;2.30;;;;;;;13.13;48.06;99672.25;5040130;28;20029;-78
2023/01/27 00:04:42;;;;;;;4.22;2.20;;;;;;;13.14;48.11;99673.94;5052992;28;20029;-78
2023/01/27 00:07:07;;;;;;;5.10;2.20;;;;;;;13.10;48.04;99666.22;5052967;28;20075;-78
2023/01/27 00:09:32;;;;;;;4.88;2.25;;;;;;;13.13;48.01;99664.38;5035413;28;20028;-78
2023/01/27 00:14:42;;;;;;;4.05;2.28;;;;;;;13.13;48.04;99667.00;5053788;28;20389;-78
2023/01/27 00:17:07;;;;;;;4.32;2.30;;;;;;;13.13;48.21;99661.75;5052829;28;20025;-78
2023/01/27 00:19:32;;;;;;;4.05;2.10;;;;;;;13.15;47.97;99659.09;5034256;28;20033;-78
2023/01/27 00:24:42;;;;;;;3.72;2.20;;;;;;;13.16;47.90;99656.44;5048852;28;20032;-77
2023/01/27 00:27:08;;;;;;;4.28;2.33;;;;;;;13.15;47.97;99644.25;5050295;28;20026;-79
2023/01/27 00:29:35;;;;;;;4.22;2.10;;;;;;;13.15;48.02;99649.50;5047782;28;20045;-77
2023/01/27 00:34:45;;;;;;;4.57;2.30;;;;;;;13.16;47.82;99645.09;5052011;28;20090;-78
2023/01/27 00:37:10;;;;;;;4.47;2.45;;;;;;;13.19;48.00;99644.16;5051728;28;20025;-77
2023/01/27 00:39:36;;;;;;;3.90;2.20;;;;;;;13.15;48.13;99639.03;5044655;28;20036;-78
2023/01/27 00:42:02;;;;;;;4.18;2.22;;;;;;;13.19;47.77;99637.19;5045433;28;20017;-78
2023/01/27 00:44:27;;;;;;;3.47;1.83;;;;;;;13.20;47.96;99635.41;5051661;28;20025;-78
2023/01/27 00:46:53;;;;;;;4.43;2.25;;;;;;;13.18;47.85;99630.22;5051877;28;20549;-78
2023/01/27 00:49:18;;;;;;;3.60;2.00;;;;;;;13.18;47.90;99638.09;5051394;28;20033;-78
2023/01/27 00:51:44;;;;;;;4.05;2.30;;;;;;;13.19;47.96;99638.91;5051627;28;20029;-78
2023/01/27 00:54:10;;;;;;;3.15;1.80;;;;;;;13.22;47.98;99633.63;5051768;28;20496;-78
2023/01/27 00:56:36;;;;;;;4.47;1.95;;;;;;;13.20;47.77;99640.63;5051745;28;20025;-78
2023/01/27 00:59:03;;;;;;;4.00;2.13;;;;;;;13.21;47.93;99631.91;5041110;28;20021;-77
2023/01/27 01:01:28;;;;;;;4.55;2.13;;;;;;;13.21;47.96;99631.91;5051493;28;20020;-78
2023/01/27 01:03:54;;;;;;;4.15;2.17;;;;;;;13.21;47.91;99626.66;5051392;28;20470;-79
2023/01/27 01:06:20;;;;;;;4.25;2.13;;;;;;;13.24;47.94;99631.81;5051857;28;20031;-79
2023/01/27 01:08:46;;;;;;;3.72;1.98;;;;;;;13.22;47.90;99620.50;5052075;28;20021;-78
2023/01/27 01:11:14;;;;;;;4.45;1.90;;;;;;;13.23;47.95;99630.09;5051531;28;20444;-78
2023/01/27 01:13:40;;;;;;;6.07;2.28;;;;;;;13.24;47.98;99623.94;5051479;28;20378;-78
2023/01/27 01:16:09;;;;;;;4.22;2.05;;;;;;;13.21;47.93;99619.63;5043387;28;20056;-78
2023/01/27 01:18:35;;;;;;;4.63;2.40;;;;;;;13.25;48.06;99617.78;5051053;28;20032;-77
2023/01/27 01:21:00;;;;;;;3.88;2.00;;;;;;;13.24;47.91;99619.56;5051519;28;20013;-77
2023/01/27 01:23:26;;;;;;;4.18;2.03;;;;;;;13.25;47.99;99628.28;5051493;28;20021;-78
2023/01/27 01:25:53;;;;;;;3.88;1.90;;;;;;;13.24;47.86;99623.94;5051461;28;20075;-77
2023/01/27 01:28:18;;;;;;;3.10;1.67;;;;;;;13.25;47.92;99620.41;5050923;28;20543;-77
2023/01/27 01:30:44;;;;;;;3.60;1.90;;;;;;;13.25;47.89;99623.03;5051459;28;20024;-77
2023/01/27 01:33:09;;;;;;;3.95;1.90;;;;;;;13.24;48.00;99613.47;5032828;28;20021;-77
2023/01/27 01:35:38;;;;;;;3.28;1.92;;;;;;;13.27;47.92;99616.03;5051210;28;20021;-77
2023/01/27 01:38:03;;;;;;;4.00;2.00;;;;;;;13.23;47.95;99612.59;5051541;28;20071;-78
2023/01/27 01:40:29;;;;;;;4.30;2.10;;;;;;;13.27;47.99;99621.25;5048304;28;20432;-77
2023/01/27 01:42:57;;;;;;;3.70;2.10;;;;;;;13.25;48.00;99617.78;5040074;28;20013;-78
2023/01/27 01:45:31;;;;;;;4.25;2.10;;;;;;;13.26;47.62;99630.00;5053570;28;20063;-78
2023/01/27 01:48:10;;;;;;;3.20;1.70;;;;;;;13.27;47.89;99621.25;5054697;28;20100;-78
2023/01/27 01:50:39;;;;;;;3.10;1.65;;;;;;;13.26;47.90;99622.13;5052400;28;20074;-77
2023/01/27 01:53:05;;;;;;;3.50;1.98;;;;;;;13.26;47.91;99617.75;5043405;28;20032;-78
2023/01/27 01:55:34;;;;;;;3.40;1.73;;;;;;;13.27;47.91;99622.09;5054710;28;20017;-78
2023/01/27 01:58:00;;;;;;;3.95;2.38;;;;;;;13.27;47.62;99621.25;5047800;28;20537;-78
2023/01/27 02:00:26;;;;;;;3.42;1.92;;;;;;;13.29;47.80;99625.56;5047680;28;20108;-78
2023/01/27 02:02:53;;;;;;;3.85;1.92;;;;;;;13.30;47.82;99629.03;5053997;28;20021;-77
2023/01/27 02:05:18;;;;;;;3.55;2.00;;;;;;;13.28;47.86;99626.44;5054443;28;20036;-78
2023/01/27 02:07:50;;;;;;;3.42;1.80;;;;;;;13.30;47.82;99629.03;5054306;28;20074;-78
2023/01/27 02:10:15;;;;;;;3.42;1.88;;;;;;;13.30;47.73;99626.41;5054443;28;20021;-78
2023/01/27 02:12:41;;;;;;;3.60;2.00;;;;;;;13.30;47.90;99626.41;5052548;28;20488;-78
2023/01/27 02:15:08;;;;;;;4.05;2.13;;;;;;;13.31;47.77;99625.50;5041919;28;20021;-77
2023/01/27 02:17:34;;;;;;;4.10;2.05;;;;;;;13.30;47.81;99626.41;5033557;28;20028;-78
2023/01/27 02:20:18;;;;;;;3.30;1.83;;;;;;;13.32;47.71;99629.00;5054017;28;20024;-78
2023/01/27 02:23:02;;;;;;;4.22;2.10;;;;;;;13.32;47.79;99629.84;5054293;28;20028;-78
2023/01/27 02:25:33;;;;;;;3.67;2.15;;;;;;;13.28;47.86;99629.06;5054103;28;20025;-77
2023/01/27 02:27:59;;;;;;;4.80;2.33;;;;;;;13.28;47.60;99618.56;5053729;28;20049;-78
2023/01/27 02:30:25;;;;;;;4.18;2.08;;;;;;;13.29;47.76;99619.44;5053775;28;20033;-77
2023/01/27 02:32:51;;;;;;;4.45;2.17;;;;;;;13.32;47.87;99614.09;5053815;28;20496;-78
2023/01/27 02:35:24;;;;;;;3.72;2.00;;;;;;;13.30;47.77;99613.31;5053590;28;20029;-78
2023/01/27 02:37:50;;;;;;;3.75;2.08;;;;;;;13.32;47.77;99621.97;5035437;28;20397;-78
2023/01/27 02:40:16;;;;;;;4.10;2.20;;;;;;;13.27;47.75;99605.53;5047262;28;20504;-78
2023/01/27 02:42:42;;;;;;;3.72;2.00;;;;;;;13.31;47.87;99607.16;5043718;28;20099;-78
2023/01/27 02:45:08;;;;;;;3.78;1.90;;;;;;;13.30;47.79;99608.06;5053485;28;20013;-78
2023/01/27 02:47:33;;;;;;;3.78;1.98;;;;;;;13.29;47.82;99607.22;5054027;28;20028;-78
2023/01/27 02:49:58;;;;;;;3.35;1.88;;;;;;;13.33;47.83;99600.13;5053803;28;20029;-78
2023/01/27 02:52:24;;;;;;;3.45;1.77;;;;;;;13.33;47.88;99602.75;5037300;28;20026;-78
2023/01/27 02:54:49;;;;;;;3.40;1.85;;;;;;;13.31;47.64;99596.66;5041382;28;20033;-78
2023/01/27 02:57:15;;;;;;;4.32;2.05;;;;;;;13.32;47.58;99598.38;5029454;28;20043;-78
2023/01/27 02:59:40;;;;;;;3.90;2.10;;;;;;;13.34;47.89;99591.34;5053150;28;20017;-77
2023/01/27 03:02:06;;;;;;;3.80;1.80;;;;;;;13.33;47.79;99592.25;5050621;28;20029;-78
2023/01/27 03:04:31;;;;;;;4.28;1.90;;;;;;;13.37;47.82;99600.91;5052520;28;20354;-77
2023/01/27 03:06:57;;;;;;;3.25;1.90;;;;;;;13.32;47.65;99593.13;5053448;28;20096;-77
2023/01/27 03:09:23;;;;;;;3.53;1.85;;;;;;;13.34;47.74;99595.72;5053321;28;20077;-77
2023/01/27 03:20:00;;;;;;;3.78;1.95;;;;;;;13.34;47.82;99595.72;5053257;28;20082;-78
2023/01/27 03:22:26;;;;;;;3.67;1.70;;;;;;;13.37;47.82;99600.91;5053160;28;20423;-76
2023/01/27 03:24:52;;;;;;;3.65;2.03;;;;;;;13.36;47.96;99600.03;5050088;28;20045;-78
2023/01/27 03:27:17;;;;;;;3.25;1.77;;;;;;;13.35;47.71;99598.31;5004350;28;20022;-77
2023/01/27 03:29:55;;;;;;;3.25;1.70;;;;;;;13.35;47.76;99603.56;5046242;28;20052;-77
2023/01/27 03:32:25;;;;;;;4.25;1.95;;;;;;;13.32;47.78;99590.53;5041145;28;20025;-77
2023/01/27 03:34:51;;;;;;;3.58;1.95;;;;;;;13.36;47.73;99600.03;5051858;28;20075;-77
2023/01/27 03:48:12;;;;;;;4.72;1.85;;;;;;;13.39;47.73;99594.72;5052640;28;20029;-78
2023/01/27 03:50:41;;;;;;;3.72;1.92;;;;;;;13.39;47.85;99594.72;5052447;28;20045;-77
2023/01/27 03:53:08;;;;;;;3.45;1.92;;;;;;;13.39;47.85;99597.34;5042149;28;20068;-77
2023/01/27 03:55:35;;;;;;;2.92;1.63;;;;;;;13.39;47.76;99584.22;5049044;28;20485;-77
2023/01/27 03:58:17;;;;;;;4.38;2.25;;;;;;;13.37;47.88;99588.63;5051950;28;20052;-77
2023/01/27 04:00:43;;;;;;;4.75;2.28;;;;;;;13.40;47.78;99591.19;5052576;28;20043;-78
2023/01/27 04:08:40;;;;;;;4.05;2.08;;;;;;;13.38;48.06;99582.50;5051862;28;20087;-78
2023/01/27 04:13:49;;;;;;;3.60;2.20;;;;;;;13.40;47.75;99575.47;5052645;28;20048;-77
2023/01/27 04:16:16;;;;;;;4.22;1.98;;;;;;;13.41;47.70;99577.19;5037197;28;20021;-78
2023/01/27 04:18:42;;;;;;;3.80;2.03;;;;;;;13.38;47.66;99571.16;5056215;28;20009;-78
2023/01/27 04:21:07;;;;;;;3.15;1.70;;;;;;;13.41;47.69;99582.41;5056254;28;20025;-78
2023/01/27 04:23:33;;;;;;;3.33;1.88;;;;;;;13.39;47.68;99562.38;5038355;28;20064;-78
2023/01/27 04:25:59;;;;;;;3.72;2.10;;;;;;;13.39;47.79;99573.75;5056967;28;20484;-78
2023/01/27 04:28:26;;;;;;;4.18;2.13;;;;;;;13.41;47.72;99579.78;5056751;28;20479;-78
2023/01/27 04:30:51;;;;;;;3.97;1.98;;;;;;;13.43;47.68;99585.84;5055149;28;20029;-78
2023/01/27 04:33:17;;;;;;;3.83;1.95;;;;;;;13.42;47.65;99584.13;5053147;28;20025;-78
2023/01/27 04:35:44;;;;;;;3.35;1.88;;;;;;;13.45;47.68;99590.22;5041611;28;20071;-78
2023/01/27 04:38:10;;;;;;;3.58;1.77;;;;;;;13.36;47.54;99579.06;5046391;28;20032;-78
2023/01/27 04:40:35;;;;;;;4.20;2.10;;;;;;;13.42;47.50;99594.63;5052745;28;20108;-77
2023/01/27 04:43:00;;;;;;;3.28;1.73;;;;;;;13.41;47.52;99592.91;5052204;28;20056;-78
2023/01/27 04:45:26;;;;;;;3.88;2.00;;;;;;;13.43;47.63;99580.59;5045497;28;20033;-78
2023/01/27 04:47:51;;;;;;;3.45;2.03;;;;;;;13.42;47.61;99578.88;5043722;28;20025;-77
2023/01/27 04:50:17;;;;;;;4.25;1.92;;;;;;;13.41;47.71;99579.78;5051952;28;20029;-77
2023/01/27 04:52:44;;;;;;;3.58;1.88;;;;;;;13.41;47.58;99577.19;5052439;28;20024;-77
2023/01/27 04:55:09;;;;;;;3.33;1.70;;;;;;;13.42;47.64;99578.88;5051669;28;20100;-78
2023/01/27 04:57:35;;;;;;;3.38;2.15;;;;;;;13.41;47.58;99577.19;5051450;28;20109;-78
2023/01/27 05:00:00;;;;;;;2.95;1.65;;;;;;;13.40;47.60;99574.59;5051953;28;20473;-77
2023/01/27 05:02:26;;;;;;;3.92;2.10;;;;;;;13.42;47.61;99578.88;5037346;28;20028;-78
2023/01/27 05:04:51;;;;;;;3.42;1.90;;;;;;;13.45;47.55;99592.84;5045824;28;20029;-78
2023/01/27 05:07:17;;;;;;;3.17;1.75;;;;;;;13.45;47.61;99592.84;5051659;28;20029;-78
2023/01/27 05:09:42;;;;;;;3.20;1.80;;;;;;;13.42;47.42;99584.13;5051352;28;20025;-77
2023/01/27 05:12:08;;;;;;;3.95;2.03;;;;;;;13.42;47.72;99589.38;5051742;28;20457;-77
2023/01/27 05:14:33;;;;;;;3.85;1.83;;;;;;;13.40;47.62;99593.81;5050512;28;20522;-77
2023/01/27 05:16:58;;;;;;;3.17;1.75;;;;;;;13.43;47.60;99596.34;5043397;28;20534;-77
2023/01/27 05:19:24;;;;;;;2.95;1.70;;;;;;;13.45;47.42;99598.09;5054174;28;20100;-77
2023/01/27 05:21:49;;;;;;;3.35;1.98;;;;;;;13.44;47.65;99599.81;5055383;28;20104;-77
2023/01/27 05:24:15;;;;;;;3.95;1.70;;;;;;;13.43;47.56;99600.72;5037172;28;20401;-77
2023/01/27 05:26:40;;;;;;;3.22;1.83;;;;;;;13.45;47.48;99603.31;5055133;28;20142;-77
2023/01/27 05:29:05;;;;;;;5.32;2.10;;;;;;;13.43;47.64;99606.81;5054903;28;20094;-77
2023/01/27 05:31:32;;;;;;;3.30;1.80;;;;;;;13.43;47.62;99606.81;5055104;28;20021;-77
2023/01/27 05:33:58;;;;;;;3.58;1.83;;;;;;;13.45;47.67;99606.78;5055144;28;20492;-77
2023/01/27 05:36:25;;;;;;;3.10;1.85;;;;;;;13.47;47.67;99601.53;5055119;28;20028;-77
2023/01/27 05:38:52;;;;;;;3.33;1.83;;;;;;;13.48;47.59;99595.38;5043666;28;20075;-77
2023/01/27 05:41:18;;;;;;;3.10;1.55;;;;;;;13.47;47.47;99605.00;5055133;28;20032;-78
2023/01/27 05:43:46;;;;;;;3.17;1.73;;;;;;;13.45;47.67;99605.94;5055056;28;20052;-77
2023/01/27 05:46:13;;;;;;;3.25;1.60;;;;;;;13.47;47.60;99625.13;5055077;28;20025;-77
2023/01/27 05:48:50;;;;;;;2.83;1.70;;;;;;;13.47;47.51;99620.72;5054832;28;20013;-78
2023/01/27 05:51:18;;;;;;;4.30;2.15;;;;;;;13.43;47.53;99611.22;5054975;28;20086;-78
2023/01/27 05:53:44;;;;;;;2.97;1.63;;;;;;;13.46;47.49;99620.75;5054217;28;20036;-78
2023/01/27 05:56:12;;;;;;;3.60;1.70;;;;;;;13.42;47.52;99620.84;5054928;28;20096;-77
2023/01/27 05:58:38;;;;;;;2.97;1.60;;;;;;;13.47;47.56;99623.34;5054595;28;20021;-77
2023/01/27 06:01:08;;;;;;;4.05;2.10;;;;;;;13.48;47.45;99618.97;5054685;28;20104;-74
2023/01/27 06:03:34;;;;;;;3.65;1.80;;;;;;;13.48;47.61;99626.84;5037224;28;20504;-77
2023/01/27 06:06:00;;;;;;;3.55;1.88;;;;;;;13.45;47.48;99619.06;5055243;28;20017;-77
2023/01/27 06:08:25;;;;;;;3.47;1.90;;;;;;;13.47;47.49;99617.28;5054744;28;20029;-78
2023/01/27 06:10:52;;;;;;;2.70;1.48;;;;;;;13.48;47.46;99618.97;5054971;28;20484;-78
2023/01/27 06:13:20;;;;;;;3.35;1.80;;;;;;;13.47;47.47;99617.28;5055234;28;20021;-77
2023/01/27 06:15:46;;;;;;;3.55;1.73;;;;;;;13.47;47.48;99623.34;5055457;28;20025;-74
2023/01/27 06:18:13;;;;;;;3.15;1.65;;;;;;;13.48;47.50;99624.22;5042113;28;20025;-74
2023/01/27 06:20:38;;;;;;;3.53;1.58;;;;;;;13.48;47.51;99622.47;5054075;28;20024;-74
2023/01/27 06:23:05;;;;;;;4.03;1.90;;;;;;;13.48;47.45;99629.47;5054358;28;20091;-74
2023/01/27 06:25:38;;;;;;;3.28;1.60;;;;;;;13.49;47.44;99628.56;5054705;28;20033;-74
2023/01/27 06:28:04;;;;;;;3.30;1.75;;;;;;;13.47;47.44;99640.88;5054605;28;20049;-74
2023/01/27 06:30:29;;;;;;;2.92;1.45;;;;;;;13.48;47.44;99634.72;5053724;28;20050;-74
2023/01/27 06:32:55;;;;;;;3.90;1.50;;;;;;;13.50;47.49;99627.66;5054530;28;20028;-73
2023/01/27 06:35:20;;;;;;;2.90;1.60;;;;;;;13.49;47.46;99636.44;5054680;28;20052;-74
2023/01/27 06:37:46;;;;;;;2.80;1.52;;;;;;;13.48;47.46;99643.44;5045255;28;20036;-73
2023/01/27 06:40:11;;;;;;;3.45;1.77;;;;;;;13.50;47.50;99638.16;5034767;28;20108;-74
2023/01/27 06:42:37;;;;;;;3.22;1.58;;;;;;;13.50;47.58;99643.38;5034738;28;20029;-74
2023/01/27 06:45:02;;;;;;;3.50;1.60;;;;;;;13.49;47.68;99634.69;5034498;28;20079;-74
2023/01/27 06:47:28;;;;;;;3.53;1.52;;;;;;;13.49;47.40;99642.53;5040827;28;20489;-74
2023/01/27 06:49:53;;;;;;;3.15;1.70;;;;;;;13.51;47.53;99650.38;5054351;28;20035;-74
2023/01/27 06:52:18;;;;;;;3.28;1.70;;;;;;;13.49;47.53;99652.16;5035880;28;20039;-74
2023/01/27 06:54:44;;;;;;;2.55;1.30;;;;;;;13.49;47.49;99657.41;5054296;28;20048;-74
2023/01/27 06:57:10;;;;;;;3.15;1.63;;;;;;;13.49;47.37;99662.66;5050319;28;20025;-73
2023/01/27 06:59:35;;;;;;;3.30;1.63;;;;;;;13.49;47.35;99657.41;5034331;28;20477;-74
2023/01/27 07:02:00;;;;;;;3.50;1.55;;;;;;;13.47;47.46;99659.22;5034303;28;20358;-74
2023/01/27 07:04:26;;;;;;;3.67;1.70;;;;;;;13.47;47.37;99659.22;5034239;28;20049;-74
2023/01/27 07:06:51;;;;;;;2.83;1.60;;;;;;;13.49;47.30;99662.66;5034819;28;20036;-74
2023/01/27 07:09:17;;;;;;;3.17;1.67;;;;;;;13.44;47.35;99657.50;5050365;28;20460;-74
2023/01/27 07:11:43;;;;;;;2.83;1.40;;;;;;;13.48;47.28;99661.81;5050030;28;20029;-74
2023/01/27 07:14:09;;;;;;;3.30;1.63;;;;;;;13.48;47.48;99660.94;5045396;28;20024;-74
2023/01/27 07:16:34;;;;;;;2.75;1.50;;;;;;;13.49;47.28;99662.66;5041618;28;20028;-74
2023/01/27 07:18:59;;;;;;;3.65;1.60;;;;;;;13.50;47.44;99669.59;5024420;28;20060;-74
2023/01/27 07:21:25;;;;;;;3.03;1.70;;;;;;;13.50;47.61;99674.84;5049266;28;20371;-74
2023/01/27 07:23:50;;;;;;;3.65;1.75;;;;;;;13.49;47.40;99668.75;5036913;28;20755;-74
2023/01/27 07:26:16;;;;;;;3.08;1.52;;;;;;;13.51;47.48;99676.59;5063208;28;20056;-73
2023/01/27 07:28:41;;;;;;;3.17;1.60;;;;;;;13.52;47.42;99673.06;5068236;28;20117;-73
2023/01/27 07:31:06;;;;;;;2.67;1.40;;;;;;;13.51;47.30;99676.59;5039944;28;20036;-73
2023/01/27 07:33:32;;;;;;;3.00;1.33;;;;;;;13.51;47.31;99671.34;5065038;28;20021;-73
2023/01/27 07:35:57;;;;;;;2.47;1.48;;;;;;;13.52;47.36;99673.06;5042567;28;20023;-72
2023/01/27 07:38:23;;;;;;;3.38;1.58;;;;;;;13.51;47.39;99676.59;5068565;28;20023;-73
2023/01/27 07:40:48;;;;;;;2.35;1.40;;;;;;;13.51;47.43;99671.34;5026100;28;20064;-73
2023/01/27 07:43:13;;;;;;;2.65;1.70;;;;;;;13.54;47.43;99677.38;5066425;28;20025;-73
2023/01/27 07:45:39;;;;;;;2.33;1.17;;;;;;;13.52;47.41;99673.06;5053055;28;20100;-73
2023/01/27 07:48:06;;;;;;;3.45;1.50;;;;;;;13.55;47.40;99676.47;5052190;28;20017;-73
2023/01/27 07:50:32;;;;;;;3.67;1.63;;;;;;;13.54;47.46;99676.50;5051625;28;20499;-74
2023/01/27 07:52:59;;;;;;;2.45;1.45;;;;;;;13.52;47.35;99673.91;5051970;28;20477;-73
2023/01/27 07:55:25;;;;;;;3.05;1.55;;;;;;;13.54;47.43;99684.38;5052492;28;20111;-74
2023/01/27 07:57:52;;;;;;;3.80;1.50;;;;;;;13.54;47.43;99681.75;5052349;28;20103;-73
2023/01/27 08:00:20;;;;;;;2.20;1.20;;;;;;;13.55;47.34;99678.22;5052381;28;20025;-74
2023/01/27 08:02:50;;;;;;;2.72;1.30;;;;;;;13.57;47.76;99676.44;5052473;28;20500;-75
2023/01/27 08:05:15;;;;;;;2.75;1.40;;;;;;;13.57;47.53;99681.69;5034651;28;20039;-74
2023/01/27 08:07:41;;;;;;;2.72;1.20;;;;;;;13.55;47.62;99672.97;5052708;28;20103;-74
2023/01/27 08:10:06;;;;;;;2.83;1.50;;;;;;;13.55;47.53;99667.72;5052611;28;20104;-74
2023/01/27 08:12:33;;;;;;;2.00;1.20;;;;;;;13.58;47.60;99662.41;5052317;28;20497;-74
2023/01/27 08:14:58;;;;;;;3.03;1.42;;;;;;;13.59;47.72;99666.75;5052225;28;20029;-74
2023/01/27 08:17:24;;;;;;;2.53;1.20;;;;;;;13.58;47.40;99675.53;5052481;28;20028;-74
2023/01/27 08:19:50;;;;;;;3.35;1.58;;;;;;;13.60;47.68;99676.34;5052313;28;20033;-74
2023/01/27 08:22:22;;;;;;;2.92;1.67;;;;;;;13.60;47.53;99676.34;5053839;28;20024;-75
2023/01/27 08:24:49;;;;;;;2.25;1.25;;;;;;;13.59;47.60;99674.63;5053627;28;20108;-74
2023/01/27 08:27:15;;;;;;;1.85;1.10;;;;;;;13.60;47.60;99676.34;5054568;28;20036;-74
2023/01/27 08:29:41;;;;;;;2.40;1.20;;;;;;;13.60;47.54;99684.19;5056074;28;20052;-73
2023/01/27 08:32:06;;;;;;;2.47;1.35;;;;;;;13.61;47.66;99685.91;5056583;28;20041;-74
2023/01/27 08:34:32;;;;;;;2.58;1.20;;;;;;;13.61;47.51;99683.28;5056957;28;20470;-74
2023/01/27 08:36:57;;;;;;;2.58;1.30;;;;;;;13.60;47.57;99686.81;5056675;28;20104;-74
2023/01/27 08:39:23;;;;;;;2.55;1.15;;;;;;;13.64;47.61;99688.47;5054316;28;20025;-74
2023/01/27 08:41:48;;;;;;;2.55;1.30;;;;;;;13.62;47.54;99686.78;5052993;28;20021;-75
2023/01/27 08:44:14;;;;;;;3.13;1.60;;;;;;;13.64;47.56;99688.47;5052788;28;20021;-74
2023/01/27 08:46:39;;;;;;;2.83;1.27;;;;;;;13.64;47.63;99687.59;5052132;28;20027;-74
2023/01/27 08:49:05;;;;;;;2.95;1.23;;;;;;;13.62;47.66;99690.28;5049208;28;20009;-74
2023/01/27 08:51:30;;;;;;;2.22;1.15;;;;;;;13.64;47.57;99688.47;5052516;28;20033;-74
2023/01/27 08:53:56;;;;;;;3.15;1.25;;;;;;;13.62;47.63;99695.53;5054355;28;20029;-74
2023/01/27 08:56:21;;;;;;;2.35;1.40;;;;;;;13.63;47.63;99697.25;5056750;28;20408;-74
2023/01/27 08:58:47;;;;;;;2.60;1.23;;;;;;;13.65;47.58;99695.44;5056705;28;20528;-74
2023/01/27 09:01:14;;;;;;;4.80;1.60;;;;;;;13.65;47.58;99698.06;5056298;28;20031;-74
2023/01/27 09:03:39;;;;;;;3.05;1.42;;;;;;;13.65;47.62;99694.56;5056251;28;20025;-74
2023/01/27 09:06:09;;;;;;;3.05;1.55;;;;;;;13.64;47.46;99704.22;5056451;28;20025;-74
2023/01/27 09:08:35;;;;;;;3.22;1.25;;;;;;;13.64;47.64;99698.97;5056078;28;20017;-74
2023/01/27 09:11:07;;;;;;;2.65;1.30;;;;;;;13.66;47.52;99702.41;5052874;28;20086;-74
2023/01/27 09:13:32;;;;;;;3.97;1.48;;;;;;;13.66;47.56;99701.56;5056347;28;20025;-74
2023/01/27 09:15:59;;;;;;;2.47;1.30;;;;;;;13.64;47.59;99712.06;5053162;28;20032;-74
2023/01/27 09:18:25;;;;;;;2.63;1.45;;;;;;;13.67;47.55;99698.88;5036849;28;20028;-74
2023/01/27 09:20:51;;;;;;;2.90;1.30;;;;;;;13.68;47.68;99704.97;5038379;28;20028;-74
2023/01/27 09:23:16;;;;;;;3.20;1.73;;;;;;;13.65;47.53;99708.53;5055948;28;20104;-74
2023/01/27 09:25:41;;;;;;;3.08;1.42;;;;;;;13.66;47.54;99709.41;5055796;28;20039;-74
2023/01/27 09:28:15;;;;;;;3.05;1.40;;;;;;;13.67;47.82;99711.97;5037915;28;20655;-74
2023/01/27 09:30:44;;;;;;;2.60;1.30;;;;;;;13.68;47.65;99716.34;5055438;28;20033;-74
2023/01/27 09:33:11;;;;;;;2.65;1.13;;;;;;;13.67;47.64;99714.59;5055964;28;20575;-74
2023/01/27 09:36:16;;;;;;;2.47;1.20;;;;;;;13.65;47.76;99716.41;5055761;28;20381;-74
2023/01/27 09:38:57;;;;;;;3.20;1.40;;;;;;;13.66;47.49;99722.53;5036025;28;20113;-74
2023/01/27 09:41:30;;;;;;;2.70;0.98;;;;;;;13.66;47.71;99717.28;5035994;28;20505;-74
2023/01/27 09:44:32;;;;;;;2.72;1.38;;;;;;;13.66;47.64;99718.13;5035729;28;20056;-74
2023/01/27 09:47:22;;;;;;;2.47;1.20;;;;;;;13.66;47.49;99710.25;5045805;28;20029;-74
2023/01/27 09:50:14;;;;;;;2.38;1.25;;;;;;;13.67;47.59;99709.34;5055567;28;20037;-74
2023/01/27 09:52:59;;;;;;;2.58;1.20;;;;;;;13.63;47.78;99710.34;5055389;28;20035;-74
2023/01/27 09:55:41;;;;;;;2.58;1.40;;;;;;;13.68;47.64;99718.09;5055627;28;20036;-74
2023/01/27 09:58:21;;;;;;;3.72;1.45;;;;;;;13.67;47.77;99711.97;5055233;28;20021;-73
2023/01/27 10:00:46;;;;;;;2.35;1.15;;;;;;;13.67;47.64;99716.38;5055127;28;20519;-73
2023/01/27 10:03:33;;;;;;;3.85;1.20;;;;;;;13.66;47.65;99718.13;5037468;28;20037;-74
2023/01/27 10:06:22;;;;;;;3.38;1.42;;;;;;;13.65;47.68;99716.41;5052155;28;20033;-74
2023/01/27 10:08:59;;;;;;;2.50;1.30;;;;;;;13.64;47.75;99712.06;5035347;28;20029;-74
2023/01/27 10:11:44;;;;;;;3.28;1.48;;;;;;;13.66;47.69;99712.88;5050731;28;20040;-74
2023/01/27 10:14:43;;;;;;;2.65;1.48;;;;;;;13.65;47.79;99705.91;5034965;28;20155;-74
2023/01/27 10:17:09;;;;;;;2.88;1.30;;;;;;;13.68;47.74;99711.09;5046624;28;20039;-74
2023/01/27 10:19:52;;;;;;;3.20;1.30;;;;;;;13.65;47.71;99707.66;5037035;28;20025;-74
2023/01/27 10:22:36;;;;;;;3.22;1.30;;;;;;;13.64;47.72;99716.44;5054983;28;20048;-74
2023/01/27 10:25:18;;;;;;;2.22;0.98;;;;;;;13.66;47.63;99715.50;5054669;28;20024;-74
2023/01/27 10:27:47;;;;;;;2.83;1.42;;;;;;;13.70;47.76;99711.03;5054629;28;20025;-74
2023/01/27 10:30:25;;;;;;;2.35;1.15;;;;;;;13.67;47.79;99706.72;5054566;28;20037;-74
2023/01/27 10:33:17;;;;;;;3.33;1.25;;;;;;;13.66;47.78;99707.63;5054855;28;20029;-74
2023/01/27 10:35:52;;;;;;;2.50;1.00;;;;;;;13.65;47.80;99711.16;5054629;28;20029;-73
2023/01/27 10:38:20;;;;;;;2.65;1.20;;;;;;;13.65;47.72;99705.91;5034793;28;20112;-74
2023/01/27 10:40:52;;;;;;;2.92;1.20;;;;;;;13.67;47.73;99698.88;5034782;28;20047;-74
2023/01/27 10:43:41;;;;;;;2.92;1.20;;;;;;;13.67;47.84;99698.88;5034291;28;20104;-75
2023/01/27 10:46:07;;;;;;;2.75;1.20;;;;;;;13.69;47.81;99698.81;5037073;28;20382;-74
2023/01/27 10:48:48;;;;;;;2.00;1.20;;;;;;;13.67;47.78;99696.25;5054417;28;20027;-73
2023/01/27 10:51:27;;;;;;;2.75;1.30;;;;;;;13.66;47.70;99686.66;5054363;28;20036;-75
2023/01/27 10:54:19;;;;;;;2.17;1.10;;;;;;;13.67;47.76;99688.38;5054350;28;20354;-74
2023/01/27 10:56:52;;;;;;;4.63;1.42;;;;;;;13.66;47.86;99684.03;5053981;28;20117;-74
2023/01/27 10:59:35;;;;;;;2.85;1.17;;;;;;;13.66;47.78;99686.66;5054031;28;20032;-74
2023/01/27 11:02:44;;;;;;;2.85;1.30;;;;;;;13.67;47.82;99682.28;5054327;28;20103;-74
2023/01/27 11:05:27;;;;;;;2.38;1.30;;;;;;;13.65;47.79;99674.47;4954084;29;20641;-74
2023/01/27 11:08:01;;;;;;;2.85;1.30;;;;;;;13.67;47.71;99672.63;4953744;29;20518;-74
2023/01/27 11:10:35;;;;;;;2.58;1.48;;;;;;;13.64;47.86;99664.88;4953258;29;20114;-75
2023/01/27 11:13:04;;;;;;;2.70;1.33;;;;;;;13.67;47.76;99659.53;4953538;29;20046;-75
2023/01/27 11:15:33;;;;;;;2.13;1.10;;;;;;;13.65;47.77;99665.72;4953921;29;20500;-75
2023/01/27 11:18:22;;;;;;;2.85;1.20;;;;;;;13.67;47.83;99661.31;4953445;28;20106;-74
2023/01/27 11:20:54;;;;;;;2.42;1.27;;;;;;;13.65;47.68;99658.72;4934610;29;20043;-74
2023/01/27 11:23:34;;;;;;;3.30;1.23;;;;;;;13.65;47.77;99660.47;4934483;28;20028;-75
2023/01/27 11:26:20;;;;;;;1.88;1.10;;;;;;;13.65;47.73;99653.47;4967574;28;20435;-74
2023/01/27 11:28:55;;;;;;;2.80;1.23;;;;;;;13.66;47.68;99654.34;4953609;29;20427;-75
2023/01/27 11:31:35;;;;;;;3.80;1.75;;;;;;;13.62;47.63;99648.34;4953656;29;20173;-74
2023/01/27 11:34:31;;;;;;;2.38;1.30;;;;;;;13.65;47.92;99649.97;4953941;29;20038;-74
2023/01/27 11:36:57;;;;;;;2.78;1.30;;;;;;;13.63;47.81;99650.03;4953703;29;20527;-74
2023/01/27 11:39:24;;;;;;;3.53;1.38;;;;;;;13.62;47.85;99643.09;5019761;28;20066;-74
2023/01/27 11:41:54;;;;;;;3.00;1.58;;;;;;;13.66;47.78;99638.63;5053600;28;20140;-74
2023/01/27 11:44:32;;;;;;;4.03;1.55;;;;;;;13.63;47.70;99636.06;5053944;28;20021;-75
2023/01/27 11:47:00;;;;;;;3.22;1.50;;;;;;;13.66;47.72;99634.22;5054113;28;20025;-74
2023/01/27 11:49:34;;;;;;;2.65;1.42;;;;;;;13.64;47.78;99625.53;5054855;28;20024;-74
2023/01/27 11:52:05;;;;;;;3.22;1.42;;;;;;;13.64;47.88;99622.03;5056934;28;20053;-75
2023/01/27 11:54:40;;;;;;;3.30;1.50;;;;;;;13.62;47.84;99614.25;5057799;28;20081;-76
2023/01/27 11:57:18;;;;;;;3.50;1.63;;;;;;;13.63;47.73;99607.22;5044957;28;20028;-74
2023/01/27 11:59:44;;;;;;;4.05;1.80;;;;;;;13.61;47.82;99599.38;5033583;28;20029;-74
2023/01/27 12:02:43;;;;;;;2.72;1.40;;;;;;;13.64;47.79;99595.81;5033954;28;20028;-74
2023/01/27 12:05:20;;;;;;;2.90;1.42;;;;;;;13.65;47.77;99598.41;5032997;28;20091;-74
2023/01/27 12:07:54;;;;;;;4.05;1.60;;;;;;;13.61;47.87;99588.91;5047939;28;20083;-74
2023/01/27 12:10:22;;;;;;;4.30;1.77;;;;;;;13.64;47.85;99588.81;5052717;28;20089;-75
2023/01/27 12:12:48;;;;;;;3.67;1.73;;;;;;;13.65;47.79;99579.19;5053015;28;20120;-74
2023/01/27 12:15:16;;;;;;;3.58;1.80;;;;;;;13.63;47.83;99581.88;5052802;28;20048;-75
2023/01/27 12:17:52;;;;;;;3.70;1.75;;;;;;;13.63;47.93;99576.63;5038803;28;20025;-74
2023/01/27 12:20:20;;;;;;;3.40;1.60;;;;;;;13.63;47.84;99581.88;5048696;28;20030;-74